Norwalk, Connecticut
Current Conditions -  °F | °C
As of 11:52 AM on Friday 24 Oct 2014 (Local Time) from KBDR Reporting Station
Broken Clouds Broken Clouds  
Wind Chill: 55°   Ceiling: 2600
Heat Index: 55°   Visibility: 10mi
Dew Point: 45°   Wind: 14mph
Humidity: 69%   Direction: 340°NNW
Pressure: 29.78"   Gusts: 25mph
Location:  41.11°N, 73.41°W
Report Text: KBDR 241552Z 34012G22KT 10SM BKN026 BKN041 13/07 A2978 RMK AO2 PK WND 33027/1525 SLP082 T01280072
Loading
Personal Weather Stations






























Interactive Weather Map
Tropical Storm Tracking
New forecast layout! Learn more

10-Day Weather Forecast

Advertisements
Track Severe Weather on mobile